Baraboo, Wisconsin
Current Conditions -  °F | °C
As of 4:10 AM on Sunday 25 Jan 2015 (Local Time) from KDLL Reporting Station
Light Snow Light Snow  
Wind Chill: 11°   Ceiling: 1400
Heat Index: 24°   Visibility: 5mi
Dew Point: 19°   Wind: 16mph
Humidity: 80%   Direction: 50°NE
Pressure: 29.76"   Gusts: 22mph
Location:  43.47°N, 89.74°W
Report Text: KDLL 251010Z AUTO 05014G19KT 5SM -SN OVC014 M05/M07 A2976 RMK AO2 T10461075
Loading
Personal Weather Stations






























Interactive Weather Map New forecast layout! Learn more

10-Day Weather Forecast

Advertisements
Track Severe Weather on mobile